sensor_id;sensor_type;location;lat;lon;timestamp;pressure;altitude;pressure_sealevel;temperature;humidity
12781;BME280;6454;43.304;24.344;2022-12-29T00:02:22;101453.44;;;2.81;86.53
12781;BME280;6454;43.304;24.344;2022-12-29T00:04:49;101445.19;;;2.89;86.46
12781;BME280;6454;43.304;24.344;2022-12-29T00:07:16;101447.88;;;2.96;87.05
12781;BME280;6454;43.304;24.344;2022-12-29T00:09:42;101437.59;;;3.06;86.54
12781;BME280;6454;43.304;24.344;2022-12-29T00:12:09;101444.16;;;3.10;86.19
12781;BME280;6454;43.304;24.344;2022-12-29T00:14:38;101448.50;;;3.11;86.53
12781;BME280;6454;43.304;24.344;2022-12-29T00:17:22;101441.69;;;3.15;87.10
12781;BME280;6454;43.304;24.344;2022-12-29T00:19:49;101436.97;;;3.23;87.02
12781;BME280;6454;43.304;24.344;2022-12-29T00:22:33;101441.69;;;3.28;87.05
12781;BME280;6454;43.304;24.344;2022-12-29T00:25:17;101439.63;;;3.43;86.43
12781;BME280;6454;43.304;24.344;2022-12-29T00:28:02;101448.06;;;3.53;86.04
12781;BME280;6454;43.304;24.344;2022-12-29T00:30:47;101451.56;;;3.60;84.99
12781;BME280;6454;43.304;24.344;2022-12-29T00:33:33;101454.06;;;3.55;85.47
12781;BME280;6454;43.304;24.344;2022-12-29T00:36:20;101458.34;;;3.69;85.48
12781;BME280;6454;43.304;24.344;2022-12-29T00:38:51;101452.78;;;3.77;85.20
12781;BME280;6454;43.304;24.344;2022-12-29T00:41:37;101446.56;;;3.83;84.60
12781;BME280;6454;43.304;24.344;2022-12-29T00:44:21;101455.66;;;3.82;84.90
12781;BME280;6454;43.304;24.344;2022-12-29T00:46:49;101453.53;;;3.98;84.37
12781;BME280;6454;43.304;24.344;2022-12-29T00:49:16;101456.84;;;4.00;84.49
12781;BME280;6454;43.304;24.344;2022-12-29T00:51:58;101455.41;;;3.97;84.98
12781;BME280;6454;43.304;24.344;2022-12-29T00:54:26;101450.63;;;3.99;85.25
12781;BME280;6454;43.304;24.344;2022-12-29T00:56:53;101448.38;;;4.03;85.33
12781;BME280;6454;43.304;24.344;2022-12-29T00:59:20;101452.63;;;4.17;84.49
12781;BME280;6454;43.304;24.344;2022-12-29T01:01:51;101455.75;;;4.20;84.21
12781;BME280;6454;43.304;24.344;2022-12-29T01:04:19;101443.34;;;4.19;84.75
12781;BME280;6454;43.304;24.344;2022-12-29T01:06:46;101415.69;;;4.12;83.95
12781;BME280;6454;43.304;24.344;2022-12-29T01:09:13;101435.22;;;4.32;84.26
12781;BME280;6454;43.304;24.344;2022-12-29T01:11:57;101442.44;;;4.32;84.59
12781;BME280;6454;43.304;24.344;2022-12-29T01:14:24;101424.53;;;4.26;84.71
12781;BME280;6454;43.304;24.344;2022-12-29T01:16:53;101439.09;;;4.43;84.01
12781;BME280;6454;43.304;24.344;2022-12-29T01:19:20;101436.84;;;4.40;83.64
12781;BME280;6454;43.304;24.344;2022-12-29T01:21:48;101436.41;;;4.43;84.04
12781;BME280;6454;43.304;24.344;2022-12-29T01:24:15;101427.31;;;4.44;84.08
12781;BME280;6454;43.304;24.344;2022-12-29T01:26:43;101431.03;;;4.43;84.21
12781;BME280;6454;43.304;24.344;2022-12-29T01:29:10;101426.03;;;4.46;84.12
12781;BME280;6454;43.304;24.344;2022-12-29T01:31:37;101427.28;;;4.50;83.74
12781;BME280;6454;43.304;24.344;2022-12-29T01:34:05;101413.00;;;4.50;83.90
12781;BME280;6454;43.304;24.344;2022-12-29T01:36:32;101419.41;;;4.55;83.78
12781;BME280;6454;43.304;24.344;2022-12-29T01:38:59;101409.72;;;4.48;84.42
12781;BME280;6454;43.304;24.344;2022-12-29T01:41:26;101415.88;;;4.55;84.31
12781;BME280;6454;43.304;24.344;2022-12-29T01:43:55;101411.09;;;4.57;83.94
12781;BME280;6454;43.304;24.344;2022-12-29T01:46:25;101408.41;;;4.57;83.64
12781;BME280;6454;43.304;24.344;2022-12-29T01:48:56;101396.03;;;4.56;84.12
12781;BME280;6454;43.304;24.344;2022-12-29T01:51:28;101398.28;;;4.59;84.17
12781;BME280;6454;43.304;24.344;2022-12-29T01:54:00;101404.91;;;4.56;83.98
12781;BME280;6454;43.304;24.344;2022-12-29T01:56:29;101397.91;;;4.55;84.23
12781;BME280;6454;43.304;24.344;2022-12-29T01:59:01;101391.88;;;4.60;83.68
12781;BME280;6454;43.304;24.344;2022-12-29T02:01:28;101392.28;;;4.57;83.62
12781;BME280;6454;43.304;24.344;2022-12-29T02:03:55;101384.78;;;4.41;83.98
12781;BME280;6454;43.304;24.344;2022-12-29T02:06:25;101380.00;;;4.36;84.56
12781;BME280;6454;43.304;24.344;2022-12-29T02:08:56;101370.69;;;4.39;83.82
12781;BME280;6454;43.304;24.344;2022-12-29T02:11:25;101372.19;;;4.35;83.58
12781;BME280;6454;43.304;24.344;2022-12-29T02:13:53;101371.59;;;4.26;83.54
12781;BME280;6454;43.304;24.344;2022-12-29T02:16:40;101364.41;;;4.20;83.90
12781;BME280;6454;43.304;24.344;2022-12-29T02:19:42;101367.47;;;4.24;82.78
12781;BME280;6454;43.304;24.344;2022-12-29T02:22:24;101364.91;;;4.11;82.48
12781;BME280;6454;43.304;24.344;2022-12-29T02:25:22;101357.31;;;4.01;82.16
12781;BME280;6454;43.304;24.344;2022-12-29T02:28:08;101357.50;;;4.00;81.43
12781;BME280;6454;43.304;24.344;2022-12-29T02:30:55;101364.34;;;3.89;81.56
12781;BME280;6454;43.304;24.344;2022-12-29T02:33:36;101354.06;;;3.79;81.99
12781;BME280;6454;43.304;24.344;2022-12-29T02:36:09;101347.91;;;3.72;80.58
12781;BME280;6454;43.304;24.344;2022-12-29T02:38:47;101352.72;;;3.57;81.37
12781;BME280;6454;43.304;24.344;2022-12-29T02:41:20;101355.81;;;3.54;81.57
12781;BME280;6454;43.304;24.344;2022-12-29T02:43:51;101354.00;;;3.48;81.19
12781;BME280;6454;43.304;24.344;2022-12-29T02:46:25;101347.19;;;3.39;80.94
12781;BME280;6454;43.304;24.344;2022-12-29T02:48:59;101342.06;;;3.31;80.75
12781;BME280;6454;43.304;24.344;2022-12-29T02:51:30;101348.28;;;3.18;81.24
12781;BME280;6454;43.304;24.344;2022-12-29T02:53:59;101343.09;;;3.17;80.46
12781;BME280;6454;43.304;24.344;2022-12-29T02:56:43;101340.25;;;3.05;80.81
12781;BME280;6454;43.304;24.344;2022-12-29T02:59:10;101346.88;;;2.96;80.86
12781;BME280;6454;43.304;24.344;2022-12-29T03:01:51;101341.91;;;2.93;81.05
12781;BME280;6454;43.304;24.344;2022-12-29T03:04:41;101337.78;;;2.91;79.76
12781;BME280;6454;43.304;24.344;2022-12-29T03:07:19;101336.56;;;2.80;79.68
12781;BME280;6454;43.304;24.344;2022-12-29T03:09:54;101339.44;;;2.66;80.66
12781;BME280;6454;43.304;24.344;2022-12-29T03:12:30;101342.31;;;2.71;80.80
12781;BME280;6454;43.304;24.344;2022-12-29T03:15:21;101333.66;;;2.62;80.16
12781;BME280;6454;43.304;24.344;2022-12-29T03:18:12;101336.75;;;2.52;81.54
12781;BME280;6454;43.304;24.344;2022-12-29T03:20:44;101335.31;;;2.50;81.65
12781;BME280;6454;43.304;24.344;2022-12-29T03:23:14;101335.13;;;2.51;80.55
12781;BME280;6454;43.304;24.344;2022-12-29T03:25:44;101321.50;;;2.33;80.48
12781;BME280;6454;43.304;24.344;2022-12-29T03:28:17;101343.50;;;2.22;81.56
12781;BME280;6454;43.304;24.344;2022-12-29T03:30:45;101344.16;;;2.24;82.04
12781;BME280;6454;43.304;24.344;2022-12-29T03:33:17;101343.09;;;2.19;80.86
12781;BME280;6454;43.304;24.344;2022-12-29T03:35:46;101304.53;;;1.87;81.37
12781;BME280;6454;43.304;24.344;2022-12-29T03:38:18;101348.84;;;2.09;81.57
12781;BME280;6454;43.304;24.344;2022-12-29T03:40:49;101356.22;;;2.07;80.95
12781;BME280;6454;43.304;24.344;2022-12-29T03:43:17;101339.25;;;1.80;81.13
12781;BME280;6454;43.304;24.344;2022-12-29T03:45:44;101364.22;;;1.94;81.79
12781;BME280;6454;43.304;24.344;2022-12-29T03:48:11;101369.75;;;1.92;81.08
12781;BME280;6454;43.304;24.344;2022-12-29T03:50:39;101360.88;;;1.85;81.19
12781;BME280;6454;43.304;24.344;2022-12-29T03:53:06;101336.50;;;1.54;82.22
12781;BME280;6454;43.304;24.344;2022-12-29T03:55:33;101360.44;;;1.75;82.07
12781;BME280;6454;43.304;24.344;2022-12-29T03:58:00;101371.75;;;1.71;81.71
12781;BME280;6454;43.304;24.344;2022-12-29T04:00:27;101371.28;;;1.61;82.12
12781;BME280;6454;43.304;24.344;2022-12-29T04:02:54;101367.34;;;1.57;82.93
12781;BME280;6454;43.304;24.344;2022-12-29T04:05:21;101364.72;;;1.63;82.19
12781;BME280;6454;43.304;24.344;2022-12-29T04:07:49;101365.94;;;1.61;82.13
12781;BME280;6454;43.304;24.344;2022-12-29T04:10:16;101366.13;;;1.59;82.70
12781;BME280;6454;43.304;24.344;2022-12-29T04:12:43;101365.72;;;1.62;81.66
12781;BME280;6454;43.304;24.344;2022-12-29T04:15:11;101369.63;;;1.60;81.61
12781;BME280;6454;43.304;24.344;2022-12-29T04:17:38;101366.06;;;1.46;82.59
12781;BME280;6454;43.304;24.344;2022-12-29T04:20:06;101364.25;;;1.53;83.15
12781;BME280;6454;43.304;24.344;2022-12-29T04:22:59;101368.38;;;1.56;82.44
12781;BME280;6454;43.304;24.344;2022-12-29T04:25:25;101368.13;;;1.51;82.58
12781;BME280;6454;43.304;24.344;2022-12-29T04:27:52;101372.88;;;1.49;82.25
12781;BME280;6454;43.304;24.344;2022-12-29T04:30:19;101358.19;;;1.38;82.13
12781;BME280;6454;43.304;24.344;2022-12-29T04:32:46;101373.63;;;1.43;82.43
12781;BME280;6454;43.304;24.344;2022-12-29T04:35:12;101385.38;;;1.42;83.11
12781;BME280;6454;43.304;24.344;2022-12-29T04:37:39;101380.81;;;1.42;82.10
12781;BME280;6454;43.304;24.344;2022-12-29T04:40:09;101376.06;;;1.38;82.21
12781;BME280;6454;43.304;24.344;2022-12-29T04:42:36;101387.59;;;1.38;82.97
12781;BME280;6454;43.304;24.344;2022-12-29T04:45:03;101378.13;;;1.36;82.37
12781;BME280;6454;43.304;24.344;2022-12-29T04:47:30;101386.78;;;1.38;82.58
12781;BME280;6454;43.304;24.344;2022-12-29T04:49:57;101375.28;;;1.37;83.40
12781;BME280;6454;43.304;24.344;2022-12-29T04:52:23;101370.34;;;1.41;82.67
12781;BME280;6454;43.304;24.344;2022-12-29T04:54:50;101374.06;;;1.40;81.75
12781;BME280;6454;43.304;24.344;2022-12-29T04:57:18;101373.97;;;1.26;81.88
12781;BME280;6454;43.304;24.344;2022-12-29T04:59:45;101374.34;;;1.23;82.68
12781;BME280;6454;43.304;24.344;2022-12-29T05:02:12;101371.47;;;1.25;82.22
12781;BME280;6454;43.304;24.344;2022-12-29T05:04:38;101387.47;;;1.18;82.26
12781;BME280;6454;43.304;24.344;2022-12-29T05:07:05;101389.28;;;1.11;82.83
12781;BME280;6454;43.304;24.344;2022-12-29T05:09:32;101396.72;;;1.16;82.51
12781;BME280;6454;43.304;24.344;2022-12-29T05:11:59;101409.44;;;1.14;81.97
12781;BME280;6454;43.304;24.344;2022-12-29T05:14:27;101406.69;;;1.07;82.28
12781;BME280;6454;43.304;24.344;2022-12-29T05:20:16;101402.97;;;1.02;81.64
12781;BME280;6454;43.304;24.344;2022-12-29T05:22:42;101409.28;;;0.94;82.15
12781;BME280;6454;43.304;24.344;2022-12-29T05:25:09;101400.78;;;0.84;83.17
12781;BME280;6454;43.304;24.344;2022-12-29T05:27:36;101399.75;;;0.85;83.51
12781;BME280;6454;43.304;24.344;2022-12-29T05:30:06;101410.25;;;0.87;82.91
12781;BME280;6454;43.304;24.344;2022-12-29T05:32:33;101423.59;;;0.87;83.04
12781;BME280;6454;43.304;24.344;2022-12-29T05:35:00;101433.78;;;0.77;83.58
12781;BME280;6454;43.304;24.344;2022-12-29T05:37:27;101435.00;;;0.74;83.93
12781;BME280;6454;43.304;24.344;2022-12-29T05:39:53;101431.13;;;0.77;82.92
12781;BME280;6454;43.304;24.344;2022-12-29T05:42:20;101430.59;;;0.67;83.24
12781;BME280;6454;43.304;24.344;2022-12-29T05:44:47;101431.44;;;0.67;84.31
12781;BME280;6454;43.304;24.344;2022-12-29T05:47:18;101431.94;;;0.77;84.03
12781;BME280;6454;43.304;24.344;2022-12-29T05:49:45;101438.28;;;0.76;83.52
12781;BME280;6454;43.304;24.344;2022-12-29T05:52:40;101439.31;;;0.75;84.06
12781;BME280;6454;43.304;24.344;2022-12-29T05:55:07;101442.75;;;0.69;82.60
12781;BME280;6454;43.304;24.344;2022-12-29T05:57:34;101447.38;;;0.60;83.40
12781;BME280;6454;43.304;24.344;2022-12-29T06:00:01;101443.59;;;0.55;83.72
12781;BME280;6454;43.304;24.344;2022-12-29T06:02:29;101449.41;;;0.58;83.19
12781;BME280;6454;43.304;24.344;2022-12-29T06:04:56;101448.91;;;0.48;83.58
12781;BME280;6454;43.304;24.344;2022-12-29T06:07:23;101451.75;;;0.47;84.46
12781;BME280;6454;43.304;24.344;2022-12-29T06:09:50;101455.91;;;0.49;84.37
12781;BME280;6454;43.304;24.344;2022-12-29T06:12:16;101462.50;;;0.53;83.93
12781;BME280;6454;43.304;24.344;2022-12-29T06:14:43;101451.19;;;0.51;84.39
12781;BME280;6454;43.304;24.344;2022-12-29T06:17:10;101460.94;;;0.59;84.74
12781;BME280;6454;43.304;24.344;2022-12-29T06:19:38;101462.19;;;0.63;84.21
12781;BME280;6454;43.304;24.344;2022-12-29T06:22:05;101465.50;;;0.65;84.45
12781;BME280;6454;43.304;24.344;2022-12-29T06:24:32;101473.06;;;0.61;85.04
12781;BME280;6454;43.304;24.344;2022-12-29T06:26:59;101467.22;;;0.73;84.90
12781;BME280;6454;43.304;24.344;2022-12-29T06:29:26;101495.22;;;0.77;84.07
12781;BME280;6454;43.304;24.344;2022-12-29T06:31:53;101464.75;;;0.71;84.34
12781;BME280;6454;43.304;24.344;2022-12-29T06:34:23;101466.66;;;0.77;85.21
12781;BME280;6454;43.304;24.344;2022-12-29T06:36:51;101468.13;;;0.80;84.87
12781;BME280;6454;43.304;24.344;2022-12-29T06:39:18;101470.81;;;0.80;85.29
12781;BME280;6454;43.304;24.344;2022-12-29T06:41:44;101465.72;;;0.85;85.68
12781;BME280;6454;43.304;24.344;2022-12-29T06:44:11;101465.63;;;0.78;86.29
12781;BME280;6454;43.304;24.344;2022-12-29T06:46:38;101474.75;;;0.84;86.17
12781;BME280;6454;43.304;24.344;2022-12-29T06:49:05;101476.19;;;0.86;87.19
12781;BME280;6454;43.304;24.344;2022-12-29T06:51:32;101478.16;;;0.99;87.04
12781;BME280;6454;43.304;24.344;2022-12-29T06:54:00;101481.53;;;1.07;86.61
12781;BME280;6454;43.304;24.344;2022-12-29T06:56:26;101486.69;;;1.09;86.81
12781;BME280;6454;43.304;24.344;2022-12-29T06:58:53;101480.44;;;1.23;86.95
12781;BME280;6454;43.304;24.344;2022-12-29T07:01:20;101478.00;;;1.28;86.85
12781;BME280;6454;43.304;24.344;2022-12-29T07:03:47;101478.63;;;1.30;87.67
12781;BME280;6454;43.304;24.344;2022-12-29T07:06:14;101477.28;;;1.41;88.37
12781;BME280;6454;43.304;24.344;2022-12-29T07:08:41;101483.16;;;1.57;88.56
12781;BME280;6454;43.304;24.344;2022-12-29T07:11:10;101473.34;;;1.64;88.73
12781;BME280;6454;43.304;24.344;2022-12-29T07:13:37;101472.75;;;1.69;89.35
12781;BME280;6454;43.304;24.344;2022-12-29T07:16:07;101443.72;;;1.66;89.41
12781;BME280;6454;43.304;24.344;2022-12-29T07:18:35;101471.84;;;1.89;89.81
12781;BME280;6454;43.304;24.344;2022-12-29T07:21:02;101473.94;;;1.94;90.15
12781;BME280;6454;43.304;24.344;2022-12-29T07:23:29;101470.75;;;2.12;90.77
12781;BME280;6454;43.304;24.344;2022-12-29T07:26:00;101480.69;;;2.24;92.63
12781;BME280;6454;43.304;24.344;2022-12-29T07:28:28;101466.84;;;2.21;93.31
12781;BME280;6454;43.304;24.344;2022-12-29T07:30:55;101476.19;;;2.31;94.01
12781;BME280;6454;43.304;24.344;2022-12-29T07:33:22;101477.47;;;2.48;94.79
12781;BME280;6454;43.304;24.344;2022-12-29T07:35:49;101482.44;;;2.51;95.47
12781;BME280;6454;43.304;24.344;2022-12-29T07:38:16;101480.78;;;2.57;96.03
12781;BME280;6454;43.304;24.344;2022-12-29T07:40:43;101475.47;;;2.70;96.12
12781;BME280;6454;43.304;24.344;2022-12-29T07:43:10;101474.66;;;2.83;96.07
12781;BME280;6454;43.304;24.344;2022-12-29T07:45:38;101478.16;;;2.90;95.50
12781;BME280;6454;43.304;24.344;2022-12-29T07:48:05;101474.28;;;2.99;95.16
12781;BME280;6454;43.304;24.344;2022-12-29T07:50:33;101471.81;;;3.10;95.27
12781;BME280;6454;43.304;24.344;2022-12-29T07:52:59;101479.66;;;3.25;94.30
12781;BME280;6454;43.304;24.344;2022-12-29T07:55:26;101476.38;;;3.36;93.14
12781;BME280;6454;43.304;24.344;2022-12-29T07:57:53;101473.88;;;3.48;92.84
12781;BME280;6454;43.304;24.344;2022-12-29T08:00:20;101470.97;;;3.62;91.90
12781;BME280;6454;43.304;24.344;2022-12-29T08:02:49;101454.06;;;3.55;91.13
12781;BME280;6454;43.304;24.344;2022-12-29T08:05:16;101464.75;;;3.75;90.72
12781;BME280;6454;43.304;24.344;2022-12-29T08:07:43;101450.94;;;3.71;90.42
12781;BME280;6454;43.304;24.344;2022-12-29T08:10:10;101461.22;;;3.87;89.86
12781;BME280;6454;43.304;24.344;2022-12-29T08:12:38;101460.38;;;3.94;89.98
12781;BME280;6454;43.304;24.344;2022-12-29T08:15:07;101454.34;;;4.05;89.16
12781;BME280;6454;43.304;24.344;2022-12-29T08:17:34;101465.50;;;4.08;88.86
12781;BME280;6454;43.304;24.344;2022-12-29T08:20:03;101455.13;;;4.12;88.70
12781;BME280;6454;43.304;24.344;2022-12-29T08:22:30;101455.97;;;4.19;88.13
12781;BME280;6454;43.304;24.344;2022-12-29T08:24:57;101460.22;;;4.33;87.27
12781;BME280;6454;43.304;24.344;2022-12-29T08:27:24;101455.47;;;4.35;87.40
12781;BME280;6454;43.304;24.344;2022-12-29T08:29:51;101455.81;;;4.45;87.31
12781;BME280;6454;43.304;24.344;2022-12-29T08:32:18;101459.72;;;4.49;86.94
12781;BME280;6454;43.304;24.344;2022-12-29T08:34:45;101458.47;;;4.51;87.02
12781;BME280;6454;43.304;24.344;2022-12-29T08:37:13;101456.63;;;4.52;87.38
12781;BME280;6454;43.304;24.344;2022-12-29T08:39:40;101459.47;;;4.64;87.32
12781;BME280;6454;43.304;24.344;2022-12-29T08:42:07;101452.78;;;4.73;86.61
12781;BME280;6454;43.304;24.344;2022-12-29T08:44:33;101454.81;;;4.77;86.48
12781;BME280;6454;43.304;24.344;2022-12-29T08:47:00;101457.69;;;4.82;86.59
12781;BME280;6454;43.304;24.344;2022-12-29T08:49:27;101450.63;;;4.88;86.85
12781;BME280;6454;43.304;24.344;2022-12-29T08:51:54;101448.88;;;5.00;85.97
12781;BME280;6454;43.304;24.344;2022-12-29T08:54:22;101444.50;;;5.05;85.20
12781;BME280;6454;43.304;24.344;2022-12-29T08:56:49;101445.50;;;5.11;85.31
12781;BME280;6454;43.304;24.344;2022-12-29T08:59:15;101437.59;;;5.16;85.43
12781;BME280;6454;43.304;24.344;2022-12-29T09:01:42;101430.03;;;5.25;84.38
12781;BME280;6454;43.304;24.344;2022-12-29T09:04:09;101429.63;;;5.28;84.17
12781;BME280;6454;43.304;24.344;2022-12-29T09:06:36;101425.59;;;5.37;84.64
12781;BME280;6454;43.304;24.344;2022-12-29T09:09:03;101425.75;;;5.42;84.49
12781;BME280;6454;43.304;24.344;2022-12-29T09:11:31;101419.94;;;5.45;84.48
12781;BME280;6454;43.304;24.344;2022-12-29T09:13:58;101419.94;;;5.45;84.25
12781;BME280;6454;43.304;24.344;2022-12-29T09:16:24;101413.59;;;5.57;84.24
12781;BME280;6454;43.304;24.344;2022-12-29T09:18:52;101400.66;;;5.66;83.39
12781;BME280;6454;43.304;24.344;2022-12-29T09:21:19;101397.50;;;5.69;83.57
12781;BME280;6454;43.304;24.344;2022-12-29T09:23:46;101394.75;;;5.75;83.13
12781;BME280;6454;43.304;24.344;2022-12-29T09:26:14;101398.41;;;5.81;82.42
12781;BME280;6454;43.304;24.344;2022-12-29T09:28:42;101393.97;;;5.93;82.05
12781;BME280;6454;43.304;24.344;2022-12-29T09:31:09;101384.25;;;5.92;81.41
12781;BME280;6454;43.304;24.344;2022-12-29T09:33:36;101379.44;;;5.94;81.57
12781;BME280;6454;43.304;24.344;2022-12-29T09:36:03;101369.72;;;5.93;81.21
12781;BME280;6454;43.304;24.344;2022-12-29T09:38:30;101374.13;;;6.06;81.14
12781;BME280;6454;43.304;24.344;2022-12-29T09:41:01;101379.63;;;6.11;80.97
12781;BME280;6454;43.304;24.344;2022-12-29T09:43:45;101376.72;;;6.12;80.61
12781;BME280;6454;43.304;24.344;2022-12-29T09:46:22;101378.34;;;6.13;80.84
12781;BME280;6454;43.304;24.344;2022-12-29T09:48:53;101370.66;;;6.17;80.68
12781;BME280;6454;43.304;24.344;2022-12-29T09:51:24;101369.28;;;6.26;80.19
12781;BME280;6454;43.304;24.344;2022-12-29T09:53:55;101368.00;;;6.28;80.23
12781;BME280;6454;43.304;24.344;2022-12-29T09:56:24;101363.81;;;6.32;80.05
12781;BME280;6454;43.304;24.344;2022-12-29T09:58:57;101358.19;;;6.34;79.97
12781;BME280;6454;43.304;24.344;2022-12-29T10:01:30;101359.00;;;6.34;80.11
12781;BME280;6454;43.304;24.344;2022-12-29T10:03:59;101351.66;;;6.41;80.35
12781;BME280;6454;43.304;24.344;2022-12-29T10:06:32;101341.44;;;6.43;80.14
12781;BME280;6454;43.304;24.344;2022-12-29T10:09:08;101342.34;;;6.56;80.47
12781;BME280;6454;43.304;24.344;2022-12-29T10:11:53;101349.72;;;6.60;80.34
12781;BME280;6454;43.304;24.344;2022-12-29T10:14:40;101342.34;;;6.56;80.09
12781;BME280;6454;43.304;24.344;2022-12-29T10:17:23;101331.19;;;6.64;79.71
12781;BME280;6454;43.304;24.344;2022-12-29T10:20:07;101330.72;;;6.67;79.93
12781;BME280;6454;43.304;24.344;2022-12-29T10:22:52;101318.78;;;6.63;79.88
12781;BME280;6454;43.304;24.344;2022-12-29T10:25:26;101285.47;;;6.45;80.17
12781;BME280;6454;43.304;24.344;2022-12-29T10:27:58;101327.00;;;6.79;80.16
12781;BME280;6454;43.304;24.344;2022-12-29T10:30:28;101320.19;;;6.77;80.63
12781;BME280;6454;43.304;24.344;2022-12-29T10:32:57;101316.59;;;6.83;80.13
12781;BME280;6454;43.304;24.344;2022-12-29T10:35:28;101317.28;;;6.90;79.84
12781;BME280;6454;43.304;24.344;2022-12-29T10:37:59;101316.22;;;6.91;79.76
12781;BME280;6454;43.304;24.344;2022-12-29T10:40:32;101312.84;;;6.95;79.65
12781;BME280;6454;43.304;24.344;2022-12-29T10:43:11;101310.13;;;7.07;80.03
12781;BME280;6454;43.304;24.344;2022-12-29T10:45:40;101302.25;;;7.17;79.96
12781;BME280;6454;43.304;24.344;2022-12-29T10:48:12;101310.47;;;7.22;79.57
12781;BME280;6454;43.304;24.344;2022-12-29T10:50:40;101299.06;;;7.32;79.70
12781;BME280;6454;43.304;24.344;2022-12-29T10:53:17;101296.03;;;7.40;79.51
12781;BME280;6454;43.304;24.344;2022-12-29T10:55:46;101293.31;;;7.40;78.24
12781;BME280;6454;43.304;24.344;2022-12-29T10:58:14;101288.25;;;7.43;78.90
12781;BME280;6454;43.304;24.344;2022-12-29T11:00:48;101294.44;;;7.55;78.91
12781;BME280;6454;43.304;24.344;2022-12-29T11:06:24;101283.16;;;7.70;78.64
12781;BME280;6454;43.304;24.344;2022-12-29T11:08:56;101285.34;;;7.73;78.45
12781;BME280;6454;43.304;24.344;2022-12-29T11:11:25;101281.25;;;7.70;78.52
12781;BME280;6454;43.304;24.344;2022-12-29T11:13:57;101286.06;;;7.80;78.83
12781;BME280;6454;43.304;24.344;2022-12-29T11:16:30;101272.88;;;7.84;78.30
12781;BME280;6454;43.304;24.344;2022-12-29T11:18:58;101262.31;;;7.82;78.50
12781;BME280;6454;43.304;24.344;2022-12-29T11:21:30;101263.09;;;7.94;78.49
12781;BME280;6454;43.304;24.344;2022-12-29T11:24:00;101266.63;;;7.95;78.96
12781;BME280;6454;43.304;24.344;2022-12-29T11:26:27;101270.41;;;8.10;78.33
12781;BME280;6454;43.304;24.344;2022-12-29T11:29:20;101264.50;;;8.13;78.22
12781;BME280;6454;43.304;24.344;2022-12-29T11:31:49;101263.78;;;8.18;77.70
12781;BME280;6454;43.304;24.344;2022-12-29T11:34:18;101264.84;;;8.17;77.55
12781;BME280;6454;43.304;24.344;2022-12-29T11:36:46;101257.16;;;8.25;77.53
12781;BME280;6454;43.304;24.344;2022-12-29T11:39:29;101259.75;;;8.32;76.86
12781;BME280;6454;43.304;24.344;2022-12-29T11:41:57;101258.44;;;8.34;76.90
12781;BME280;6454;43.304;24.344;2022-12-29T11:44:24;101258.66;;;8.33;76.38
12781;BME280;6454;43.304;24.344;2022-12-29T11:46:54;101258.53;;;8.39;76.66
12781;BME280;6454;43.304;24.344;2022-12-29T11:49:23;101266.94;;;8.43;76.00
12781;BME280;6454;43.304;24.344;2022-12-29T11:51:52;101260.97;;;8.41;75.95
12781;BME280;6454;43.304;24.344;2022-12-29T11:54:24;101257.69;;;8.39;75.12
12781;BME280;6454;43.304;24.344;2022-12-29T11:56:53;101255.09;;;8.44;75.09
12781;BME280;6454;43.304;24.344;2022-12-29T11:59:24;101247.78;;;8.45;74.89
12781;BME280;6454;43.304;24.344;2022-12-29T12:01:58;101244.66;;;8.53;74.36
12781;BME280;6454;43.304;24.344;2022-12-29T12:04:30;101248.53;;;8.57;73.80
12781;BME280;6454;43.304;24.344;2022-12-29T12:07:00;101236.88;;;8.56;73.02
12781;BME280;6454;43.304;24.344;2022-12-29T12:09:32;101206.34;;;8.39;73.39
12781;BME280;6454;43.304;24.344;2022-12-29T12:12:02;101239.19;;;8.64;73.74
12781;BME280;6454;43.304;24.344;2022-12-29T12:14:34;101229.19;;;8.65;73.53
12781;BME280;6454;43.304;24.344;2022-12-29T12:17:06;101197.38;;;8.55;73.88
12781;BME280;6454;43.304;24.344;2022-12-29T12:19:41;101239.91;;;8.76;73.62
12781;BME280;6454;43.304;24.344;2022-12-29T12:22:15;101228.03;;;8.77;73.54
12781;BME280;6454;43.304;24.344;2022-12-29T12:24:47;101246.97;;;8.77;74.03
12781;BME280;6454;43.304;24.344;2022-12-29T12:27:18;101225.41;;;8.82;73.82
12781;BME280;6454;43.304;24.344;2022-12-29T12:29:50;101222.69;;;8.82;73.65
12781;BME280;6454;43.304;24.344;2022-12-29T12:32:24;101217.84;;;8.84;73.94
12781;BME280;6454;43.304;24.344;2022-12-29T12:34:53;101219.47;;;8.85;73.70
12781;BME280;6454;43.304;24.344;2022-12-29T12:37:41;101220.69;;;8.94;73.73
12781;BME280;6454;43.304;24.344;2022-12-29T12:40:23;101220.84;;;8.88;73.27
12781;BME280;6454;43.304;24.344;2022-12-29T12:43:05;101218.97;;;8.88;73.25
12781;BME280;6454;43.304;24.344;2022-12-29T12:45:51;101223.06;;;8.91;73.17
12781;BME280;6454;43.304;24.344;2022-12-29T12:48:38;101221.25;;;8.96;73.71
12781;BME280;6454;43.304;24.344;2022-12-29T12:51:14;101205.31;;;9.00;73.50
12781;BME280;6454;43.304;24.344;2022-12-29T12:53:54;101215.34;;;8.99;73.09
12781;BME280;6454;43.304;24.344;2022-12-29T12:59:40;101214.81;;;9.02;72.64
12781;BME280;6454;43.304;24.344;2022-12-29T13:02:24;101219.69;;;9.00;73.35
12781;BME280;6454;43.304;24.344;2022-12-29T13:05:10;101210.66;;;8.95;73.18
12781;BME280;6454;43.304;24.344;2022-12-29T13:07:48;101220.50;;;9.01;72.74
12781;BME280;6454;43.304;24.344;2022-12-29T13:10:24;101215.34;;;8.99;72.76
12781;BME280;6454;43.304;24.344;2022-12-29T13:12:58;101221.81;;;8.98;72.91
12781;BME280;6454;43.304;24.344;2022-12-29T13:15:41;101215.41;;;9.04;72.62
12781;BME280;6454;43.304;24.344;2022-12-29T13:18:18;101218.06;;;8.99;72.47
12781;BME280;6454;43.304;24.344;2022-12-29T13:20:54;101214.53;;;8.99;72.76
12781;BME280;6454;43.304;24.344;2022-12-29T13:23:30;101217.31;;;9.04;72.50
12781;BME280;6454;43.304;24.344;2022-12-29T13:26:06;101213.22;;;9.01;72.15
12781;BME280;6454;43.304;24.344;2022-12-29T13:28:49;101211.63;;;9.05;71.98
12781;BME280;6454;43.304;24.344;2022-12-29T13:31:23;101207.78;;;9.01;71.89